createdAt,value
2016-07-08T00:00:21.238Z,0
2016-07-08T00:01:21.844Z,0
2016-07-08T00:02:21.223Z,0
2016-07-08T00:03:21.211Z,0
2016-07-08T00:04:21.199Z,0
2016-07-08T00:05:21.188Z,0
2016-07-08T00:06:22.410Z,0
2016-07-08T00:07:21.785Z,0
2016-07-08T00:08:21.151Z,0
2016-07-08T00:09:21.147Z,0
2016-07-08T00:10:21.188Z,0
2016-07-08T00:11:21.124Z,0
2016-07-08T00:12:21.121Z,0
2016-07-08T00:13:21.106Z,0
2016-07-08T00:14:22.321Z,0
2016-07-08T00:15:21.105Z,0
2016-07-08T00:16:21.091Z,0
2016-07-08T00:17:21.064Z,0
2016-07-08T00:18:21.057Z,0
2016-07-08T00:19:21.304Z,0
2016-07-08T00:20:21.648Z,0
2016-07-08T00:21:21.646Z,0
2016-07-08T00:22:21.025Z,0
2016-07-08T00:23:21.005Z,0
2016-07-08T00:24:20.994Z,0
2016-07-08T00:25:20.981Z,0
2016-07-08T00:26:21.025Z,0
2016-07-08T00:27:21.573Z,0
2016-07-08T00:28:21.566Z,0
2016-07-08T00:29:21.561Z,0
2016-07-08T00:30:20.940Z,0
2016-07-08T00:31:21.543Z,0
2016-07-08T00:32:20.915Z,0
2016-07-08T00:33:21.512Z,0
2016-07-08T00:34:21.510Z,0
2016-07-08T00:35:20.882Z,0
2016-07-08T00:36:21.490Z,0
2016-07-08T00:37:20.866Z,0
2016-07-08T00:38:21.469Z,0
2016-07-08T00:39:21.454Z,0
2016-07-08T00:40:21.446Z,0
2016-07-08T00:41:21.433Z,0
2016-07-08T00:42:20.810Z,0
2016-07-08T00:43:20.804Z,0
2016-07-08T00:44:20.791Z,0
2016-07-08T00:45:21.399Z,0
2016-07-08T00:46:21.388Z,0
2016-07-08T00:47:20.761Z,0
2016-07-08T00:48:21.359Z,0
2016-07-08T00:49:21.358Z,0
2016-07-08T00:50:20.741Z,0
2016-07-08T00:51:21.333Z,0
2016-07-08T00:52:20.715Z,0
2016-07-08T00:53:20.703Z,0
2016-07-08T00:54:21.300Z,0
2016-07-08T00:55:21.296Z,0
2016-07-08T00:56:20.673Z,0
2016-07-08T00:57:20.661Z,0
2016-07-08T00:58:21.876Z,0
2016-07-08T00:59:21.265Z,0
2016-07-08T01:00:21.251Z,0
2016-07-08T01:01:20.623Z,0
2016-07-08T01:02:21.231Z,0
2016-07-08T01:03:20.600Z,0
2016-07-08T01:04:20.597Z,0
2016-07-08T01:05:20.578Z,0
2016-07-08T01:06:20.579Z,0
2016-07-08T01:07:20.562Z,0
2016-07-08T01:08:20.545Z,0
2016-07-08T01:09:20.539Z,0
2016-07-08T01:10:20.533Z,0
2016-07-08T01:11:20.518Z,0
2016-07-08T01:12:21.119Z,0
2016-07-08T01:13:21.108Z,0
2016-07-08T01:14:21.098Z,0
2016-07-08T01:15:21.091Z,0
2016-07-08T01:16:20.467Z,0
2016-07-08T01:17:22.295Z,0
2016-07-08T01:18:20.458Z,0
2016-07-08T01:19:20.435Z,0
2016-07-08T01:20:20.429Z,0
2016-07-08T01:21:20.416Z,0
2016-07-08T01:22:20.408Z,0
2016-07-08T01:23:21.620Z,0
2016-07-08T01:24:20.998Z,0
2016-07-08T01:25:20.373Z,0
2016-07-08T01:26:20.370Z,0
2016-07-08T01:27:20.353Z,0
2016-07-08T01:28:20.959Z,0
2016-07-08T01:29:20.335Z,0
2016-07-08T01:30:20.331Z,0
2016-07-08T01:31:20.317Z,0
2016-07-08T01:32:20.912Z,0
2016-07-08T01:33:20.300Z,0
2016-07-08T01:34:21.514Z,0
2016-07-08T01:35:20.887Z,0
2016-07-08T01:36:20.874Z,0
2016-07-08T01:37:20.254Z,0
2016-07-08T01:38:20.240Z,0
2016-07-08T01:39:20.283Z,0
2016-07-08T01:40:20.227Z,0
2016-07-08T01:41:20.207Z,0
2016-07-08T01:42:20.820Z,0
2016-07-08T01:43:20.202Z,0
2016-07-08T01:44:20.184Z,0
2016-07-08T01:45:20.173Z,0
2016-07-08T01:46:20.773Z,0
2016-07-08T01:47:20.151Z,0
2016-07-08T01:48:20.139Z,0
2016-07-08T01:49:20.131Z,0
2016-07-08T01:50:20.118Z,0
2016-07-08T01:51:20.108Z,0
2016-07-08T01:52:20.718Z,0
2016-07-08T01:53:20.100Z,0
2016-07-08T01:54:20.080Z,0
2016-07-08T01:55:20.071Z,0
2016-07-08T01:56:20.677Z,0
2016-07-08T01:57:20.052Z,0
2016-07-08T01:58:20.652Z,0
2016-07-08T01:59:21.266Z,0
2016-07-08T02:00:20.016Z,0
2016-07-08T02:01:20.011Z,0
2016-07-08T02:02:20.006Z,0
2016-07-08T02:03:20.599Z,0
2016-07-08T02:04:20.031Z,0
2016-07-08T02:05:19.978Z,0
2016-07-08T02:06:19.951Z,0
2016-07-08T02:07:19.973Z,0
2016-07-08T02:08:20.548Z,0
2016-07-08T02:09:19.927Z,0
2016-07-08T02:10:19.922Z,0
2016-07-08T02:11:20.524Z,0
2016-07-08T02:12:21.118Z,0
2016-07-08T02:13:20.518Z,0
2016-07-08T02:14:19.874Z,0
2016-07-08T02:15:19.921Z,0
2016-07-08T02:16:19.850Z,0
2016-07-08T02:17:20.482Z,0
2016-07-08T02:18:20.446Z,0
2016-07-08T02:19:21.288Z,0
2016-07-08T02:20:19.811Z,0
2016-07-08T02:21:19.796Z,0
2016-07-08T02:22:19.804Z,0
2016-07-08T02:23:19.781Z,0
2016-07-08T02:24:19.824Z,0
2016-07-08T02:25:19.764Z,0
2016-07-08T02:26:21.002Z,0
2016-07-08T02:27:19.751Z,0
2016-07-08T02:28:19.729Z,0
2016-07-08T02:29:20.329Z,0
2016-07-08T02:30:19.707Z,0
2016-07-08T02:31:20.313Z,0
2016-07-08T02:32:19.690Z,0
2016-07-08T02:33:20.290Z,0
2016-07-08T02:34:19.665Z,0
2016-07-08T02:35:19.656Z,0
2016-07-08T02:36:19.643Z,0
2016-07-08T02:37:20.253Z,0
2016-07-08T02:38:19.630Z,0
2016-07-08T02:39:19.616Z,0
2016-07-08T02:40:19.606Z,0
2016-07-08T02:41:20.210Z,0
2016-07-08T02:42:19.588Z,0
2016-07-08T02:43:20.185Z,0
2016-07-08T02:44:19.567Z,0
2016-07-08T02:45:19.553Z,0
2016-07-08T02:46:20.155Z,0
2016-07-08T02:47:19.531Z,0
2016-07-08T02:48:19.519Z,4
2016-07-08T02:49:20.124Z,4
2016-07-08T02:50:20.118Z,4
2016-07-08T02:51:19.493Z,0
2016-07-08T02:52:19.491Z,4
2016-07-08T02:53:20.085Z,4
2016-07-08T02:54:20.073Z,4
2016-07-08T02:55:20.074Z,8
2016-07-08T02:56:19.438Z,4
2016-07-08T02:57:19.428Z,8
2016-07-08T02:58:19.422Z,4
2016-07-08T02:59:19.409Z,8
2016-07-08T03:00:20.624Z,12
2016-07-08T03:01:19.393Z,12
2016-07-08T03:02:19.989Z,12
2016-07-08T03:03:19.368Z,16
2016-07-08T03:04:19.987Z,16
2016-07-08T03:05:20.591Z,16
2016-07-08T03:06:19.946Z,16
2016-07-08T03:07:19.329Z,24
2016-07-08T03:08:19.929Z,24
2016-07-08T03:09:19.301Z,28
2016-07-08T03:10:19.906Z,28
2016-07-08T03:11:19.903Z,32
2016-07-08T03:12:19.280Z,36
2016-07-08T03:13:19.904Z,40
2016-07-08T03:14:19.255Z,44
2016-07-08T03:15:19.239Z,44
2016-07-08T03:16:19.230Z,48
2016-07-08T03:17:19.222Z,56
2016-07-08T03:18:19.212Z,60
2016-07-08T03:19:19.253Z,60
2016-07-08T03:20:19.188Z,68
2016-07-08T03:21:20.401Z,68
2016-07-08T03:22:19.176Z,72
2016-07-08T03:23:19.153Z,72
2016-07-08T03:24:19.150Z,76
2016-07-08T03:25:19.752Z,80
2016-07-08T03:26:19.741Z,84
2016-07-08T03:27:19.722Z,92
2016-07-08T03:28:19.111Z,100
2016-07-08T03:29:19.097Z,108
2016-07-08T03:30:19.698Z,116
2016-07-08T03:31:19.075Z,124
2016-07-08T03:32:19.678Z,136
2016-07-08T03:33:19.665Z,140
2016-07-08T03:34:19.678Z,148
2016-07-08T03:35:19.641Z,156
2016-07-08T03:36:19.642Z,164
2016-07-08T03:37:19.624Z,168
2016-07-08T03:38:19.612Z,172
2016-07-08T03:39:18.985Z,180
2016-07-08T03:40:18.985Z,184
2016-07-08T03:41:18.969Z,188
2016-07-08T03:42:20.231Z,192
2016-07-08T03:43:18.953Z,196
2016-07-08T03:44:18.941Z,196
2016-07-08T03:45:19.537Z,204
2016-07-08T03:46:19.526Z,212
2016-07-08T03:47:20.133Z,216
2016-07-08T03:48:18.891Z,220
2016-07-08T03:49:18.894Z,224
2016-07-08T03:50:18.880Z,220
2016-07-08T03:51:19.475Z,220
2016-07-08T03:52:18.856Z,220
2016-07-08T03:53:18.839Z,220
2016-07-08T03:54:19.442Z,232
2016-07-08T03:55:18.817Z,244
2016-07-08T03:56:18.807Z,264
2016-07-08T03:57:18.801Z,284
2016-07-08T03:58:18.784Z,308
2016-07-08T03:59:18.772Z,336
2016-07-08T04:00:19.381Z,364
2016-07-08T04:01:18.755Z,400
2016-07-08T04:02:18.794Z,432
2016-07-08T04:03:19.352Z,464
2016-07-08T04:04:18.721Z,480
2016-07-08T04:05:19.326Z,508
2016-07-08T04:06:19.321Z,536
2016-07-08T04:07:18.690Z,560
2016-07-08T04:08:19.296Z,580
2016-07-08T04:09:19.897Z,592
2016-07-08T04:10:18.663Z,600
2016-07-08T04:11:19.257Z,608
2016-07-08T04:12:18.635Z,616
2016-07-08T04:13:19.244Z,632
2016-07-08T04:14:18.622Z,648
2016-07-08T04:15:19.215Z,664
2016-07-08T04:16:18.596Z,684
2016-07-08T04:17:18.590Z,708
2016-07-08T04:18:18.569Z,740
2016-07-08T04:19:18.767Z,784
2016-07-08T04:20:18.551Z,852
2016-07-08T04:21:18.541Z,940
2016-07-08T04:22:18.530Z,1052
2016-07-08T04:23:18.518Z,1192
2016-07-08T04:24:18.516Z,1372
2016-07-08T04:25:18.503Z,1564
2016-07-08T04:26:18.486Z,1772
2016-07-08T04:27:18.480Z,1992
2016-07-08T04:28:19.082Z,2212
2016-07-08T04:29:19.685Z,2412
2016-07-08T04:30:18.445Z,2576
2016-07-08T04:31:18.436Z,2712
2016-07-08T04:32:18.423Z,2820
2016-07-08T04:33:18.416Z,2872
2016-07-08T04:34:18.406Z,2892
2016-07-08T04:35:18.389Z,2868
2016-07-08T04:36:19.609Z,2828
2016-07-08T04:37:18.382Z,2756
2016-07-08T04:38:18.365Z,2688
2016-07-08T04:39:18.364Z,2648
2016-07-08T04:40:18.344Z,2656
2016-07-08T04:41:18.329Z,2660
2016-07-08T04:42:18.324Z,2668
2016-07-08T04:43:18.308Z,2664
2016-07-08T04:44:19.525Z,2644
2016-07-08T04:45:18.901Z,2580
2016-07-08T04:46:18.890Z,2472
2016-07-08T04:47:18.282Z,2352
2016-07-08T04:48:18.875Z,2276
2016-07-08T04:49:18.248Z,2220
2016-07-08T04:50:18.248Z,2216
2016-07-08T04:51:18.226Z,2228
2016-07-08T04:52:18.836Z,2232
2016-07-08T04:53:18.822Z,2212
2016-07-08T04:54:18.810Z,2192
2016-07-08T04:55:18.186Z,2196
2016-07-08T04:56:18.184Z,2208
2016-07-08T04:57:18.166Z,2212
2016-07-08T04:58:18.162Z,2208
2016-07-08T04:59:18.762Z,2184
2016-07-08T05:00:18.142Z,2148
2016-07-08T05:01:18.135Z,2076
2016-07-08T05:02:18.734Z,2012
2016-07-08T05:03:18.121Z,1940
2016-07-08T05:04:18.715Z,1864
2016-07-08T05:05:18.700Z,1804
2016-07-08T05:06:18.082Z,1760
2016-07-08T05:07:18.677Z,1736
2016-07-08T05:08:18.061Z,1732
2016-07-08T05:09:18.052Z,1736
2016-07-08T05:10:18.044Z,1756
2016-07-08T05:11:19.254Z,1792
2016-07-08T05:12:18.631Z,1840
2016-07-08T05:13:18.019Z,1872
2016-07-08T05:14:18.615Z,1892
2016-07-08T05:15:18.603Z,1912
2016-07-08T05:16:17.978Z,1928
2016-07-08T05:17:17.971Z,1960
2016-07-08T05:18:17.980Z,1984
2016-07-08T05:19:17.971Z,1984
2016-07-08T05:20:18.603Z,1972
2016-07-08T05:21:18.543Z,1972
2016-07-08T05:22:18.536Z,1988
2016-07-08T05:23:17.920Z,2012
2016-07-08T05:24:17.910Z,2044
2016-07-08T05:25:17.895Z,2096
2016-07-08T05:26:17.882Z,2168
2016-07-08T05:27:18.486Z,2268
2016-07-08T05:28:17.878Z,2404
2016-07-08T05:29:17.880Z,2568
2016-07-08T05:30:17.846Z,2744
2016-07-08T05:31:18.447Z,2904
2016-07-08T05:32:17.821Z,2972
2016-07-08T05:33:17.830Z,2964
2016-07-08T05:34:17.803Z,2920
2016-07-08T05:35:17.827Z,2908
2016-07-08T05:36:18.397Z,2916
2016-07-08T05:37:17.781Z,3000
2016-07-08T05:38:18.384Z,3144
2016-07-08T05:39:18.984Z,3312
2016-07-08T05:40:17.741Z,3440
2016-07-08T05:41:18.391Z,3520
2016-07-08T05:42:17.722Z,3572
2016-07-08T05:43:18.327Z,3676
2016-07-08T05:44:17.713Z,3796
2016-07-08T05:45:17.691Z,3948
2016-07-08T05:46:17.693Z,4096
2016-07-08T05:47:17.694Z,4280
2016-07-08T05:48:18.275Z,4368
2016-07-08T05:49:18.280Z,4384
2016-07-08T05:50:17.646Z,4440
2016-07-08T05:51:17.633Z,4480
2016-07-08T05:52:17.625Z,4456
2016-07-08T05:53:17.620Z,4448
2016-07-08T05:54:17.606Z,4484
2016-07-08T05:55:17.599Z,4476
2016-07-08T05:56:17.588Z,4400
2016-07-08T05:57:18.194Z,4244
2016-07-08T05:58:18.182Z,4060
2016-07-08T05:59:18.186Z,3968
2016-07-08T06:00:18.174Z,4008
2016-07-08T06:01:17.549Z,4144
2016-07-08T06:02:17.528Z,4284
2016-07-08T06:03:17.529Z,4428
2016-07-08T06:04:17.514Z,4600
2016-07-08T06:05:17.502Z,4748
2016-07-08T06:06:18.112Z,4788
2016-07-08T06:07:17.485Z,4836
2016-07-08T06:08:18.085Z,4892
2016-07-08T06:09:18.080Z,4940
2016-07-08T06:10:17.455Z,4972
2016-07-08T06:11:17.446Z,4956
2016-07-08T06:12:17.446Z,4972
2016-07-08T06:13:17.437Z,4956
2016-07-08T06:14:18.037Z,4912
2016-07-08T06:15:18.034Z,5000
2016-07-08T06:16:18.015Z,5144
2016-07-08T06:17:18.010Z,5440
2016-07-08T06:18:18.003Z,5568
2016-07-08T06:19:17.589Z,5416
2016-07-08T06:20:17.986Z,5452
2016-07-08T06:21:17.983Z,5524
2016-07-08T06:22:17.975Z,5644
2016-07-08T06:23:17.983Z,5764
2016-07-08T06:24:17.330Z,5952
2016-07-08T06:25:17.956Z,5676
2016-07-08T06:26:17.315Z,5444
2016-07-08T06:27:17.926Z,5316
2016-07-08T06:28:18.534Z,5280
2016-07-08T06:29:17.902Z,5188
2016-07-08T06:30:17.280Z,5196
2016-07-08T06:31:17.891Z,5256
2016-07-08T06:32:17.262Z,5420
2016-07-08T06:33:17.252Z,5664
2016-07-08T06:34:17.859Z,5976
2016-07-08T06:35:17.850Z,6248
2016-07-08T06:36:17.238Z,6644
2016-07-08T06:37:17.845Z,6992
2016-07-08T06:38:17.824Z,7400
2016-07-08T06:39:17.207Z,7584
2016-07-08T06:40:17.198Z,7852
2016-07-08T06:41:18.420Z,7924
2016-07-08T06:42:17.179Z,7856
2016-07-08T06:43:17.783Z,7764
2016-07-08T06:44:17.776Z,7792
2016-07-08T06:45:17.772Z,7960
2016-07-08T06:46:17.763Z,7972
2016-07-08T06:47:17.760Z,8004
2016-07-08T06:48:17.747Z,7992
2016-07-08T06:49:17.119Z,8136
2016-07-08T06:50:17.115Z,8520
2016-07-08T06:51:17.101Z,8384
2016-07-08T06:52:17.708Z,8484
2016-07-08T06:53:17.091Z,8460
2016-07-08T06:54:17.080Z,9052
2016-07-08T06:55:17.703Z,8284
2016-07-08T06:56:17.070Z,9908
2016-07-08T06:57:17.054Z,9288
2016-07-08T06:58:17.057Z,9544
2016-07-08T06:59:17.045Z,10116
2016-07-08T07:00:17.644Z,9644
2016-07-08T07:01:17.029Z,9592
2016-07-08T07:02:17.021Z,9364
2016-07-08T07:03:17.003Z,9212
2016-07-08T07:04:17.612Z,8996
2016-07-08T07:05:16.992Z,8900
2016-07-08T07:06:16.983Z,8940
2016-07-08T07:07:16.979Z,8992
2016-07-08T07:08:17.586Z,9024
2016-07-08T07:09:17.576Z,8788
2016-07-08T07:10:16.957Z,8432
2016-07-08T07:11:16.947Z,7836
2016-07-08T07:12:17.547Z,7620
2016-07-08T07:13:17.548Z,7572
2016-07-08T07:14:16.928Z,7788
2016-07-08T07:15:16.917Z,7664
2016-07-08T07:16:16.918Z,7108
2016-07-08T07:17:17.517Z,7000
2016-07-08T07:18:16.899Z,6676
2016-07-08T07:19:16.893Z,6524
2016-07-08T07:20:17.541Z,6496
2016-07-08T07:21:18.095Z,6732
2016-07-08T07:22:17.492Z,6624
2016-07-08T07:23:17.475Z,6756
2016-07-08T07:24:17.472Z,6964
2016-07-08T07:25:16.845Z,7188
2016-07-08T07:26:18.679Z,7576
2016-07-08T07:27:17.442Z,7704
2016-07-08T07:28:17.435Z,7768
2016-07-08T07:29:17.423Z,8076
2016-07-08T07:30:17.425Z,8336
2016-07-08T07:31:16.800Z,8528
2016-07-08T07:32:17.422Z,8648
2016-07-08T07:33:18.011Z,8848
2016-07-08T07:34:17.396Z,8812
2016-07-08T07:35:17.384Z,9372
2016-07-08T07:36:16.768Z,8692
2016-07-08T07:37:17.993Z,9196
2016-07-08T07:38:16.749Z,8960
2016-07-08T07:39:17.350Z,8772
2016-07-08T07:40:17.015Z,7316
2016-07-08T07:41:17.333Z,6844
2016-07-08T07:42:17.939Z,6584
2016-07-08T07:43:17.324Z,6428
2016-07-08T07:44:17.321Z,6404
2016-07-08T07:45:16.691Z,6388
2016-07-08T07:46:16.692Z,6416
2016-07-08T07:47:16.682Z,6460
2016-07-08T07:48:16.671Z,6564
2016-07-08T07:49:17.274Z,6700
2016-07-08T07:50:17.270Z,6840
2016-07-08T07:51:16.649Z,6924
2016-07-08T07:52:17.261Z,6972
2016-07-08T07:53:17.243Z,6936
2016-07-08T07:54:16.631Z,6856
2016-07-08T07:55:17.843Z,6792
2016-07-08T07:56:16.611Z,6784
2016-07-08T07:57:16.603Z,6992
2016-07-08T07:58:17.266Z,6564
2016-07-08T07:59:16.585Z,6336
2016-07-08T08:00:17.193Z,6256
2016-07-08T08:01:16.582Z,6280
2016-07-08T08:02:17.184Z,6448
2016-07-08T08:03:16.564Z,6756
2016-07-08T08:04:16.554Z,7224
2016-07-08T08:05:17.776Z,7768
2016-07-08T08:06:16.537Z,8300
2016-07-08T08:07:16.526Z,8896
2016-07-08T08:08:17.140Z,9532
2016-07-08T08:09:17.135Z,10160
2016-07-08T08:10:17.119Z,11096
2016-07-08T08:11:16.498Z,11692
2016-07-08T08:12:16.492Z,13168
2016-07-08T08:13:16.489Z,17568
2016-07-08T08:14:16.473Z,17920
2016-07-08T08:15:17.085Z,11380
2016-07-08T08:16:17.101Z,11016
2016-07-08T08:17:16.453Z,10364
2016-07-08T08:18:16.449Z,10608
2016-07-08T08:19:17.260Z,10688
2016-07-08T08:20:16.442Z,10844
2016-07-08T08:21:16.435Z,12136
2016-07-08T08:22:16.420Z,13456
2016-07-08T08:23:16.412Z,12016
2016-07-08T08:24:16.406Z,11668
2016-07-08T08:25:17.014Z,10780
2016-07-08T08:26:17.003Z,9380
2016-07-08T08:27:17.046Z,8404
2016-07-08T08:28:16.379Z,7640
2016-07-08T08:29:16.376Z,6996
2016-07-08T08:30:16.975Z,6612
2016-07-08T08:31:16.972Z,6436
2016-07-08T08:32:16.960Z,6480
2016-07-08T08:33:16.339Z,6520
2016-07-08T08:34:16.336Z,6444
2016-07-08T08:35:16.333Z,6172
2016-07-08T08:36:16.318Z,5680
2016-07-08T08:37:16.312Z,5044
2016-07-08T08:38:16.916Z,4388
2016-07-08T08:39:16.298Z,3836
2016-07-08T08:40:16.292Z,3368
2016-07-08T08:41:16.291Z,3008
2016-07-08T08:42:16.887Z,2752
2016-07-08T08:43:16.266Z,2592
2016-07-08T08:44:16.265Z,2532
2016-07-08T08:45:16.252Z,2592
2016-07-08T08:46:16.258Z,2840
2016-07-08T08:47:16.288Z,3336
2016-07-08T08:48:16.869Z,4148
2016-07-08T08:49:16.892Z,5064
2016-07-08T08:50:16.274Z,5968
2016-07-08T08:51:16.827Z,6868
2016-07-08T08:52:16.817Z,7508
2016-07-08T08:53:17.423Z,7916
2016-07-08T08:54:16.188Z,8260
2016-07-08T08:55:16.792Z,8712
2016-07-08T08:56:16.170Z,9144
2016-07-08T08:57:16.168Z,9272
2016-07-08T08:58:17.997Z,9400
2016-07-08T08:59:16.766Z,9668
2016-07-08T09:00:17.426Z,9472
2016-07-08T09:01:16.746Z,8808
2016-07-08T09:02:17.353Z,8400
2016-07-08T09:03:16.119Z,8352
2016-07-08T09:04:16.109Z,8356
2016-07-08T09:05:16.716Z,8496
2016-07-08T09:06:16.105Z,7336
2016-07-08T09:07:17.315Z,6896
2016-07-08T09:08:16.085Z,6740
2016-07-08T09:09:16.072Z,6908
2016-07-08T09:10:16.069Z,7484
2016-07-08T09:11:17.283Z,8260
2016-07-08T09:12:16.052Z,8956
2016-07-08T09:13:16.671Z,9588
2016-07-08T09:14:16.037Z,9828
2016-07-08T09:15:16.654Z,9616
2016-07-08T09:16:16.025Z,9424
2016-07-08T09:17:16.630Z,9696
2016-07-08T09:18:16.623Z,9140
2016-07-08T09:19:16.618Z,8764
2016-07-08T09:20:16.606Z,8332
2016-07-08T09:21:15.992Z,8084
2016-07-08T09:22:15.983Z,8064
2016-07-08T09:23:15.979Z,8036
2016-07-08T09:24:16.583Z,7964
2016-07-08T09:25:17.200Z,7980
2016-07-08T09:26:17.184Z,8012
2016-07-08T09:27:16.560Z,7844
2016-07-08T09:28:15.935Z,7424
2016-07-08T09:29:15.936Z,8380
2016-07-08T09:30:15.927Z,9496
2016-07-08T09:31:16.526Z,11588
2016-07-08T09:32:15.901Z,14220
2016-07-08T09:33:15.902Z,16992
2016-07-08T09:34:15.894Z,19872
2016-07-08T09:35:15.881Z,17920
2016-07-08T09:36:15.879Z,15888
2016-07-08T09:37:15.866Z,16180
2016-07-08T09:38:15.915Z,16576
2016-07-08T09:39:15.858Z,16768
2016-07-08T09:40:16.462Z,16736
2016-07-08T09:41:16.457Z,16576
2016-07-08T09:42:15.844Z,16212
2016-07-08T09:43:16.464Z,13716
2016-07-08T09:44:16.434Z,14072
2016-07-08T09:45:15.816Z,15404
2016-07-08T09:46:15.810Z,15580
2016-07-08T09:47:16.414Z,13512
2016-07-08T09:48:15.797Z,14104
2016-07-08T09:49:16.397Z,14800
2016-07-08T09:50:15.831Z,15252
2016-07-08T09:51:16.389Z,14920
2016-07-08T09:52:16.994Z,14280
2016-07-08T09:53:15.758Z,13480
2016-07-08T09:54:15.766Z,11632
2016-07-08T09:55:15.747Z,11512
2016-07-08T09:56:16.360Z,11588
2016-07-08T09:57:16.977Z,11592
2016-07-08T09:58:16.344Z,11652
2016-07-08T09:59:16.385Z,11948
2016-07-08T10:00:16.327Z,12164
2016-07-08T10:01:15.758Z,12448
2016-07-08T10:02:15.699Z,12848
2016-07-08T10:03:15.708Z,13120
2016-07-08T10:04:16.310Z,13180
2016-07-08T10:05:15.680Z,13420
2016-07-08T10:06:16.288Z,13608
2016-07-08T10:07:15.686Z,13780
2016-07-08T10:08:16.276Z,13044
2016-07-08T10:09:16.884Z,12820
2016-07-08T10:10:16.262Z,12688
2016-07-08T10:11:15.641Z,12672
2016-07-08T10:12:15.642Z,12916
2016-07-08T10:13:16.290Z,13536
2016-07-08T10:14:15.628Z,13676
2016-07-08T10:15:15.618Z,13340
2016-07-08T10:16:16.231Z,12620
2016-07-08T10:17:15.606Z,11900
2016-07-08T10:18:16.211Z,11892
2016-07-08T10:19:15.602Z,12676
2016-07-08T10:20:16.197Z,14200
2016-07-08T10:21:16.190Z,14336
2016-07-08T10:22:16.185Z,17248
2016-07-08T10:23:15.567Z,17888
2016-07-08T10:24:15.563Z,17856
2016-07-08T10:25:15.549Z,18912
2016-07-08T10:26:15.548Z,19776
2016-07-08T10:27:16.776Z,17888
2016-07-08T10:28:16.765Z,14204
2016-07-08T10:29:16.138Z,12792
2016-07-08T10:30:15.521Z,9924
2016-07-08T10:31:15.511Z,9852
2016-07-08T10:32:16.118Z,10108
2016-07-08T10:33:15.505Z,10784
2016-07-08T10:34:15.495Z,11820
2016-07-08T10:35:16.093Z,13492
2016-07-08T10:36:15.491Z,15724
2016-07-08T10:37:16.086Z,18784
2016-07-08T10:38:15.465Z,17984
2016-07-08T10:39:15.460Z,16352
2016-07-08T10:40:15.456Z,15344
2016-07-08T10:41:15.492Z,12232
2016-07-08T10:42:15.442Z,12180
2016-07-08T10:43:15.443Z,12936
2016-07-08T10:44:15.422Z,13184
2016-07-08T10:45:15.419Z,14396
2016-07-08T10:46:16.645Z,15360
2016-07-08T10:47:15.408Z,15740
2016-07-08T10:48:15.403Z,17152
2016-07-08T10:49:15.397Z,18400
2016-07-08T10:50:15.392Z,14112
2016-07-08T10:51:16.006Z,13156
2016-07-08T10:52:15.373Z,13072
2016-07-08T10:53:15.978Z,12344
2016-07-08T10:54:15.358Z,12580
2016-07-08T10:55:15.972Z,12980
2016-07-08T10:56:15.961Z,13224
2016-07-08T10:57:15.954Z,13576
2016-07-08T10:58:15.336Z,14084
2016-07-08T10:59:15.941Z,14588
2016-07-08T11:00:15.943Z,15212
2016-07-08T11:01:15.318Z,15188
2016-07-08T11:02:15.931Z,15992
2016-07-08T11:03:15.918Z,17056
2016-07-08T11:04:15.298Z,18432
2016-07-08T11:05:15.286Z,18944
2016-07-08T11:06:15.293Z,23552
2016-07-08T11:07:15.282Z,25216
2016-07-08T11:08:16.498Z,26144
2016-07-08T11:09:15.273Z,29824
2016-07-08T11:10:15.264Z,32000
2016-07-08T11:11:15.250Z,29312
2016-07-08T11:12:15.255Z,29440
2016-07-08T11:13:15.867Z,32800
2016-07-08T11:14:15.232Z,33152
2016-07-08T11:15:15.840Z,28224
2016-07-08T11:16:15.225Z,41152
2016-07-08T11:17:15.826Z,47232
2016-07-08T11:18:15.231Z,33984
2016-07-08T11:19:15.823Z,29536
2016-07-08T11:20:15.199Z,29344
2016-07-08T11:21:15.820Z,29568
2016-07-08T11:22:16.416Z,27488
2016-07-08T11:23:15.191Z,24448
2016-07-08T11:24:15.183Z,18272
2016-07-08T11:25:15.798Z,15724
2016-07-08T11:26:15.173Z,14844
2016-07-08T11:27:15.168Z,14356
2016-07-08T11:28:15.160Z,12308
2016-07-08T11:29:15.779Z,12700
2016-07-08T11:30:16.378Z,12252
2016-07-08T11:31:15.145Z,11960
2016-07-08T11:32:15.141Z,12012
2016-07-08T11:33:15.130Z,11736
2016-07-08T11:34:15.751Z,12284
2016-07-08T11:35:15.738Z,13188
2016-07-08T11:36:15.763Z,11892
2016-07-08T11:37:15.776Z,11328
2016-07-08T11:38:15.115Z,11288
2016-07-08T11:39:15.104Z,12184
2016-07-08T11:40:15.706Z,12508
2016-07-08T11:41:15.711Z,11624
2016-07-08T11:42:15.696Z,14392
2016-07-08T11:43:15.690Z,16320
2016-07-08T11:44:15.069Z,16896
2016-07-08T11:45:15.692Z,18016
2016-07-08T11:46:15.671Z,16928
2016-07-08T11:47:15.671Z,16960
2016-07-08T11:48:15.060Z,15084
2016-07-08T11:49:15.657Z,15440
2016-07-08T11:50:15.037Z,17504
2016-07-08T11:51:16.253Z,15016
2016-07-08T11:52:15.654Z,15072
2016-07-08T11:53:15.026Z,16192
2016-07-08T11:54:15.019Z,17056
2016-07-08T11:55:16.849Z,19232
2016-07-08T11:56:14.999Z,19776
2016-07-08T11:57:15.604Z,19296
2016-07-08T11:58:14.990Z,24224
2016-07-08T11:59:14.984Z,19424
2016-07-08T12:00:15.055Z,22272
2016-07-08T12:01:15.595Z,14332
2016-07-08T12:02:15.577Z,13656
2016-07-08T12:03:15.596Z,13064
2016-07-08T12:04:14.951Z,12816
2016-07-08T12:05:15.559Z,14348
2016-07-08T12:06:15.549Z,19264
2016-07-08T12:07:15.556Z,18304
2016-07-08T12:08:14.938Z,24480
2016-07-08T12:09:15.536Z,18720
2016-07-08T12:10:14.921Z,18112
2016-07-08T12:11:14.915Z,19168
2016-07-08T12:12:14.908Z,33088
2016-07-08T12:13:16.123Z,52480
2016-07-08T12:14:15.506Z,40160
2016-07-08T12:15:15.510Z,24864
2016-07-08T12:16:14.881Z,18656
2016-07-08T12:17:15.488Z,16384
2016-07-08T12:18:15.478Z,21472
2016-07-08T12:19:14.870Z,39712
2016-07-08T12:20:14.860Z,45984
2016-07-08T12:21:14.847Z,48608
2016-07-08T12:22:14.852Z,28352
2016-07-08T12:23:14.844Z,31136
2016-07-08T12:24:16.071Z,23040
2016-07-08T12:25:15.504Z,28128
2016-07-08T12:26:14.833Z,26016
2016-07-08T12:27:14.817Z,32512
2016-07-08T12:28:16.653Z,44512
2016-07-08T12:29:15.493Z,43232
2016-07-08T12:30:14.801Z,48288
2016-07-08T12:31:14.818Z,40768
2016-07-08T12:32:16.029Z,65408
2016-07-08T12:33:15.411Z,52256
2016-07-08T12:34:15.402Z,95328
2016-07-08T12:35:15.399Z,39904
2016-07-08T12:36:16.003Z,25376
2016-07-08T12:37:15.387Z,41760
2016-07-08T12:38:15.384Z,25600
2016-07-08T12:39:15.374Z,18432
2016-07-08T12:40:15.369Z,22208
2016-07-08T12:41:14.754Z,21280
2016-07-08T12:42:14.745Z,20736
2016-07-08T12:43:14.742Z,37184
2016-07-08T12:44:15.350Z,99488
2016-07-08T12:45:15.352Z,19744
2016-07-08T12:46:14.736Z,67264
2016-07-08T12:47:14.731Z,82432
2016-07-08T12:48:15.331Z,26496
2016-07-08T12:49:14.721Z,32160
2016-07-08T12:50:14.718Z,70528
2016-07-08T12:51:15.324Z,32384
2016-07-08T12:52:15.322Z,76512
2016-07-08T12:53:15.318Z,66464
2016-07-08T12:54:14.700Z,62464
2016-07-08T12:55:14.706Z,15460
2016-07-08T12:56:15.309Z,16160
2016-07-08T12:57:15.306Z,24928
2016-07-08T12:58:15.922Z,43040
2016-07-08T12:59:14.684Z,47456
2016-07-08T13:00:14.685Z,40640
2016-07-08T13:01:14.679Z,40672
2016-07-08T13:02:15.299Z,22240
2016-07-08T13:03:15.281Z,26144
2016-07-08T13:04:16.531Z,25760
2016-07-08T13:05:15.898Z,20032
2016-07-08T13:06:14.656Z,20480
2016-07-08T13:07:14.661Z,29184
2016-07-08T13:08:15.269Z,45152
2016-07-08T13:09:15.874Z,31904
2016-07-08T13:10:14.645Z,20896
2016-07-08T13:11:15.869Z,21440
2016-07-08T13:12:14.642Z,20704
2016-07-08T13:13:15.253Z,20672
2016-07-08T13:14:15.247Z,47392
2016-07-08T13:15:14.628Z,38912
2016-07-08T13:16:14.628Z,32896
2016-07-08T13:17:14.622Z,37824
2016-07-08T13:18:14.615Z,18496
2016-07-08T13:19:15.231Z,17792
2016-07-08T13:20:14.607Z,19104
2016-07-08T13:21:15.831Z,35744
2016-07-08T13:22:14.596Z,48032
2016-07-08T13:23:14.595Z,21088
2016-07-08T13:24:15.824Z,19200
2016-07-08T13:25:14.590Z,18432
2016-07-08T13:26:15.820Z,19680
2016-07-08T13:27:14.574Z,15948
2016-07-08T13:28:15.803Z,12384
2016-07-08T13:29:15.827Z,10912
2016-07-08T13:30:15.179Z,11300
2016-07-08T13:31:14.563Z,11880